Time;durP1;ratioP1;P1;durP2;ratioP2;P2;SDS_P1;SDS_P2;PMS_P1;PMS_P2;Temp;Humidity;BMP_temperature;BMP_pressure;BME280_temperature;BME280_humidity;BME280_pressure;Samples;Min_cycle;Max_cycle;Signal;HPM_P1;HPM_P2
2022/10/22 00:00:16;;;;;;;15.05;8.30;;;12.30;99.90;;;;;;6122430;23;20080;-68
2022/10/22 00:02:42;;;;;;;15.57;9.38;;;12.30;99.90;;;;;;6148672;23;20443;-69
2022/10/22 00:05:09;;;;;;;13.00;8.80;;;12.20;99.90;;;;;;6121170;23;20045;-69
2022/10/22 00:07:35;;;;;;;15.82;8.68;;;12.20;99.90;;;;;;6120715;23;20466;-68
2022/10/22 00:10:04;;;;;;;12.90;8.70;;;12.10;99.90;;;;;;6148201;23;20013;-72
2022/10/22 00:12:29;;;;;;;14.48;8.85;;;12.10;99.90;;;;;;6148727;23;20106;-68
2022/10/22 00:14:55;;;;;;;12.32;8.68;;;12.10;99.90;;;;;;6121804;23;20053;-69
2022/10/22 00:17:21;;;;;;;13.98;9.15;;;12.10;99.90;;;;;;6148433;23;20021;-69
2022/10/22 00:19:47;;;;;;;14.73;9.20;;;12.00;99.90;;;;;;6147245;23;20088;-68
2022/10/22 00:22:12;;;;;;;14.57;9.13;;;12.00;99.90;;;;;;6147389;23;20462;-68
2022/10/22 00:24:41;;;;;;;12.45;8.18;;;12.00;99.90;;;;;;6145013;23;20024;-68
2022/10/22 00:27:09;;;;;;;16.25;9.25;;;12.00;99.90;;;;;;6148459;23;20088;-68
2022/10/22 00:29:38;;;;;;;17.50;9.43;;;11.90;99.90;;;;;;6146943;23;20029;-68
2022/10/22 00:32:05;;;;;;;16.08;8.63;;;12.00;99.90;;;;;;6147572;23;20013;-68
2022/10/22 00:34:31;;;;;;;14.25;9.10;;;11.90;99.90;;;;;;6147402;23;20572;-69
2022/10/22 00:36:57;;;;;;;15.15;9.38;;;11.90;99.90;;;;;;6147705;23;20307;-70
2022/10/22 00:39:25;;;;;;;17.55;9.70;;;12.00;99.90;;;;;;6119478;23;20041;-68
2022/10/22 00:41:52;;;;;;;16.77;9.93;;;11.90;99.90;;;;;;6132833;23;20029;-68
2022/10/22 00:44:55;;;;;;;15.48;9.68;;;12.00;99.90;;;;;;6120067;23;20021;-68
2022/10/22 00:47:25;;;;;;;16.83;9.18;;;12.00;99.90;;;;;;6121412;23;20030;-67
2022/10/22 00:49:52;;;;;;;14.07;9.38;;;12.00;99.90;;;;;;6121145;23;20022;-68
2022/10/22 00:52:18;;;;;;;15.65;10.20;;;12.00;99.90;;;;;;6121274;23;20040;-68
2022/10/22 00:54:44;;;;;;;16.83;9.48;;;11.90;99.90;;;;;;6121207;23;20250;-68
2022/10/22 00:57:10;;;;;;;16.15;9.02;;;11.90;99.90;;;;;;6120896;23;20642;-68
2022/10/22 00:59:39;;;;;;;15.18;8.57;;;11.80;99.90;;;;;;6146740;23;20801;-69
2022/10/22 01:02:04;;;;;;;12.38;8.82;;;11.80;99.90;;;;;;6146714;23;20473;-68
2022/10/22 01:04:30;;;;;;;14.68;9.40;;;11.80;99.90;;;;;;6147603;23;20025;-68
2022/10/22 01:06:56;;;;;;;17.67;9.25;;;11.70;99.90;;;;;;6148480;23;20026;-68
2022/10/22 01:09:41;;;;;;;13.15;9.48;;;11.60;99.90;;;;;;6147832;23;20026;-68
2022/10/22 01:12:18;;;;;;;14.38;8.68;;;11.60;99.90;;;;;;6147677;23;20092;-69
2022/10/22 01:15:14;;;;;;;14.43;9.48;;;11.60;99.90;;;;;;6096282;23;20028;-68
2022/10/22 01:17:55;;;;;;;14.45;9.70;;;11.40;99.90;;;;;;6149007;23;20017;-68
2022/10/22 01:20:23;;;;;;;15.20;10.13;;;11.40;99.90;;;;;;6120534;23;21429;-68
2022/10/22 01:22:59;;;;;;;18.05;12.02;;;11.50;99.90;;;;;;6122458;23;20069;-68
2022/10/22 01:26:03;;;;;;;13.80;9.95;;;11.50;99.90;;;;;;6120143;23;20053;-68
2022/10/22 01:28:59;;;;;;;17.27;10.02;;;11.60;99.90;;;;;;6145865;23;20048;-68
2022/10/22 01:31:47;;;;;;;17.17;10.27;;;11.60;99.90;;;;;;6120990;23;20017;-67
2022/10/22 01:34:16;;;;;;;14.70;10.30;;;11.70;99.90;;;;;;6146637;23;20053;-68
2022/10/22 01:36:42;;;;;;;16.63;10.05;;;11.70;99.90;;;;;;6146566;23;20021;-68
2022/10/22 01:39:09;;;;;;;18.38;10.73;;;11.70;99.90;;;;;;6146076;23;20076;-69
2022/10/22 01:41:39;;;;;;;15.63;10.50;;;11.80;99.90;;;;;;6147782;23;20024;-68
2022/10/22 01:44:04;;;;;;;19.15;10.75;;;11.80;99.90;;;;;;6117607;23;20076;-69
2022/10/22 01:46:31;;;;;;;15.40;9.75;;;11.80;99.90;;;;;;6148062;23;20018;-68
2022/10/22 01:49:21;;;;;;;15.63;10.20;;;11.90;99.90;;;;;;6119583;23;20053;-68
2022/10/22 01:52:33;;;;;;;16.85;9.55;;;11.90;99.90;;;;;;6146601;23;20056;-68
2022/10/22 01:55:06;;;;;;;14.25;10.02;;;11.80;99.90;;;;;;6097897;23;20100;-68
2022/10/22 01:57:43;;;;;;;16.23;9.85;;;11.90;99.90;;;;;;6148100;23;20099;-68
2022/10/22 02:00:13;;;;;;;15.55;9.48;;;12.00;99.90;;;;;;6145853;23;20354;-68
2022/10/22 02:02:51;;;;;;;17.58;11.00;;;12.10;99.90;;;;;;6118931;23;20028;-69
2022/10/22 02:05:32;;;;;;;22.15;10.10;;;12.10;99.90;;;;;;6147250;23;20033;-68
2022/10/22 02:08:14;;;;;;;22.10;10.48;;;12.20;99.90;;;;;;6147591;23;20418;-68
2022/10/22 02:10:43;;;;;;;15.60;10.50;;;12.20;99.90;;;;;;6146581;23;20029;-69
2022/10/22 02:13:16;;;;;;;19.92;10.15;;;12.30;99.90;;;;;;6119030;23;20555;-68
2022/10/22 02:15:44;;;;;;;17.45;10.57;;;12.40;99.90;;;;;;6120624;23;20498;-69
2022/10/22 02:18:11;;;;;;;19.92;10.32;;;12.40;99.90;;;;;;6146026;23;20036;-68
2022/10/22 02:20:41;;;;;;;19.60;10.45;;;12.40;99.90;;;;;;6145424;23;20009;-68
2022/10/22 02:23:08;;;;;;;17.77;11.05;;;12.50;99.90;;;;;;6145372;23;20048;-69
2022/10/22 02:25:40;;;;;;;19.50;11.00;;;12.50;99.90;;;;;;6119314;23;20021;-68
2022/10/22 02:28:12;;;;;;;19.80;10.77;;;12.60;99.90;;;;;;6119735;23;20034;-72
2022/10/22 02:30:41;;;;;;;15.48;9.55;;;12.60;99.90;;;;;;6142888;23;20017;-68
2022/10/22 02:33:11;;;;;;;13.27;9.32;;;12.50;99.90;;;;;;6119803;23;20084;-69
2022/10/22 02:35:40;;;;;;;19.08;10.80;;;12.60;99.90;;;;;;6146654;23;20020;-67
2022/10/22 02:38:07;;;;;;;15.40;9.68;;;12.60;99.90;;;;;;6117346;23;20513;-68
2022/10/22 02:40:33;;;;;;;19.33;9.30;;;12.60;99.90;;;;;;6145183;23;20069;-68
2022/10/22 02:42:58;;;;;;;16.65;9.40;;;12.70;99.90;;;;;;6148908;23;20415;-67
2022/10/22 02:45:24;;;;;;;14.73;9.40;;;12.60;99.90;;;;;;6145734;23;20078;-69
2022/10/22 02:47:51;;;;;;;18.00;9.25;;;12.60;99.90;;;;;;6132360;23;20565;-67
2022/10/22 02:50:17;;;;;;;13.65;8.60;;;12.70;99.90;;;;;;6119087;23;20492;-68
2022/10/22 02:52:43;;;;;;;16.48;8.82;;;12.70;99.90;;;;;;6145732;23;20045;-68
2022/10/22 02:55:09;;;;;;;14.27;8.90;;;12.80;99.90;;;;;;6120412;23;20037;-68
2022/10/22 02:57:34;;;;;;;14.90;9.23;;;12.80;99.90;;;;;;6122564;23;20022;-68
2022/10/22 03:00:00;;;;;;;16.45;8.63;;;12.80;99.90;;;;;;6121806;23;20093;-68
2022/10/22 03:02:26;;;;;;;16.75;8.55;;;12.80;99.90;;;;;;6148948;23;20140;-69
2022/10/22 03:04:51;;;;;;;17.95;8.50;;;12.80;99.90;;;;;;6148190;23;20049;-68
2022/10/22 03:07:17;;;;;;;13.98;8.68;;;12.80;99.90;;;;;;6122984;23;20041;-68
2022/10/22 03:09:43;;;;;;;16.15;9.48;;;12.80;99.90;;;;;;6149911;23;20382;-69
2022/10/22 03:12:08;;;;;;;17.73;8.77;;;12.80;99.90;;;;;;6123010;23;20052;-68
2022/10/22 03:14:34;;;;;;;12.80;8.52;;;12.90;99.90;;;;;;6121285;23;20465;-69
2022/10/22 03:17:00;;;;;;;14.98;8.95;;;12.80;99.90;;;;;;6149422;23;20680;-69
2022/10/22 03:19:26;;;;;;;18.35;8.43;;;12.80;99.90;;;;;;6148891;23;20321;-69
2022/10/22 03:22:28;;;;;;;17.48;9.10;;;12.90;99.90;;;;;;6147516;23;20029;-68
2022/10/22 03:24:57;;;;;;;19.92;9.30;;;12.90;99.90;;;;;;6148313;23;20025;-68
2022/10/22 03:27:23;;;;;;;17.85;8.57;;;12.80;99.90;;;;;;6148364;23;20017;-69
2022/10/22 03:29:51;;;;;;;12.30;7.80;;;12.90;99.90;;;;;;6147466;23;20029;-68
2022/10/22 03:32:17;;;;;;;16.38;7.93;;;12.90;99.90;;;;;;6148070;23;20022;-68
2022/10/22 03:34:42;;;;;;;13.95;8.00;;;12.90;99.90;;;;;;6146896;23;20021;-68
2022/10/22 03:37:08;;;;;;;17.10;8.75;;;12.90;99.90;;;;;;6146345;23;20018;-69
2022/10/22 03:39:39;;;;;;;13.43;7.95;;;12.90;99.90;;;;;;6122132;23;20009;-68
2022/10/22 03:42:08;;;;;;;13.18;8.38;;;12.90;99.90;;;;;;6122776;23;20032;-68
2022/10/22 03:44:39;;;;;;;11.57;6.90;;;12.90;99.90;;;;;;6122377;23;20028;-68
2022/10/22 03:47:05;;;;;;;16.75;7.25;;;12.90;99.90;;;;;;6148817;23;20023;-69
2022/10/22 03:49:30;;;;;;;18.15;8.07;;;12.90;99.90;;;;;;6148698;23;20127;-69
2022/10/22 03:51:56;;;;;;;13.85;7.50;;;12.80;99.90;;;;;;6147937;23;20497;-68
2022/10/22 03:54:22;;;;;;;16.10;7.70;;;12.90;99.90;;;;;;6148339;23;20017;-69
2022/10/22 03:56:48;;;;;;;14.25;6.95;;;12.80;99.90;;;;;;6147764;23;20036;-69
2022/10/22 03:59:14;;;;;;;17.25;6.78;;;12.80;99.90;;;;;;6148454;23;20029;-69
2022/10/22 04:01:39;;;;;;;15.93;7.35;;;12.70;99.90;;;;;;6123717;23;20026;-69
2022/10/22 04:04:08;;;;;;;13.70;7.72;;;12.70;99.90;;;;;;6145514;23;20032;-69
2022/10/22 04:06:34;;;;;;;11.52;7.18;;;12.70;99.90;;;;;;6148632;23;20052;-68
2022/10/22 04:09:00;;;;;;;17.58;7.20;;;12.70;99.90;;;;;;6149363;23;20033;-68
2022/10/22 04:11:26;;;;;;;13.05;8.38;;;12.70;99.90;;;;;;6147607;23;20040;-69
2022/10/22 04:13:52;;;;;;;13.68;6.90;;;12.60;99.90;;;;;;6149466;23;20446;-68
2022/10/22 04:16:20;;;;;;;13.52;7.13;;;12.60;99.90;;;;;;6121242;23;20029;-69
2022/10/22 04:18:48;;;;;;;17.77;7.28;;;12.60;99.90;;;;;;6149698;23;20028;-69
2022/10/22 04:21:16;;;;;;;15.02;7.28;;;12.60;99.90;;;;;;6121496;23;20029;-68
2022/10/22 04:23:46;;;;;;;16.00;7.07;;;12.60;99.90;;;;;;6122356;23;20025;-68
2022/10/22 04:26:12;;;;;;;13.40;7.45;;;12.60;99.90;;;;;;6149251;23;20306;-69
2022/10/22 04:28:38;;;;;;;13.98;6.47;;;12.60;99.90;;;;;;6148826;23;20061;-69
2022/10/22 04:31:12;;;;;;;14.02;7.15;;;12.60;99.90;;;;;;6147504;23;20030;-68
2022/10/22 04:33:38;;;;;;;17.15;7.03;;;12.50;99.90;;;;;;6119825;23;20047;-69
2022/10/22 04:36:10;;;;;;;12.85;6.30;;;12.60;99.90;;;;;;6122601;23;20100;-69
2022/10/22 04:38:36;;;;;;;14.45;6.70;;;12.60;99.90;;;;;;6121667;23;20056;-68
2022/10/22 04:41:13;;;;;;;17.75;6.97;;;12.60;99.90;;;;;;6148511;23;20021;-70
2022/10/22 04:43:40;;;;;;;15.07;6.20;;;12.60;99.90;;;;;;6149871;23;20017;-68
2022/10/22 04:46:09;;;;;;;15.90;7.57;;;12.60;99.90;;;;;;6122168;23;20017;-69
2022/10/22 04:48:40;;;;;;;11.65;5.93;;;12.60;99.90;;;;;;6148297;23;20021;-70
2022/10/22 04:51:12;;;;;;;12.18;6.65;;;12.60;99.90;;;;;;6146394;23;20025;-69
2022/10/22 04:53:41;;;;;;;16.35;7.38;;;12.50;99.90;;;;;;6123860;23;20036;-69
2022/10/22 04:56:11;;;;;;;12.32;6.78;;;12.60;99.90;;;;;;6155976;23;20076;-69
2022/10/22 04:58:38;;;;;;;12.23;6.32;;;12.60;99.90;;;;;;6132237;23;20088;-68
2022/10/22 05:01:11;;;;;;;15.52;6.75;;;12.50;99.90;;;;;;6133434;23;20405;-69
2022/10/22 05:03:38;;;;;;;14.40;7.15;;;12.50;99.90;;;;;;6123870;23;20253;-68
2022/10/22 05:06:04;;;;;;;14.15;6.40;;;12.50;99.90;;;;;;6146747;23;20025;-69
2022/10/22 05:08:30;;;;;;;17.92;6.80;;;12.60;99.90;;;;;;6146906;23;20037;-68
2022/10/22 05:10:56;;;;;;;17.98;6.35;;;12.50;99.90;;;;;;6122633;23;20029;-68
2022/10/22 05:13:21;;;;;;;16.98;7.30;;;12.50;99.90;;;;;;6147335;23;20402;-68
2022/10/22 05:15:47;;;;;;;14.68;5.97;;;12.50;99.90;;;;;;6147806;23;20036;-68
2022/10/22 05:18:12;;;;;;;15.02;6.88;;;12.50;99.90;;;;;;6148767;23;20039;-69
2022/10/22 05:20:39;;;;;;;16.23;7.40;;;12.60;99.90;;;;;;6121293;23;20040;-68
2022/10/22 05:23:08;;;;;;;13.45;7.20;;;12.50;99.90;;;;;;6119610;23;20022;-69
2022/10/22 05:25:39;;;;;;;10.25;6.57;;;12.50;99.90;;;;;;6145821;23;20024;-69
2022/10/22 05:28:08;;;;;;;13.38;7.15;;;12.60;99.90;;;;;;6120729;23;20045;-69
2022/10/22 05:30:34;;;;;;;17.13;7.03;;;12.50;99.90;;;;;;6147780;23;20100;-69
2022/10/22 05:32:59;;;;;;;16.73;7.38;;;12.50;99.90;;;;;;6147726;23;20532;-69
2022/10/22 05:35:25;;;;;;;11.75;7.57;;;12.60;99.90;;;;;;6120275;23;20017;-69
2022/10/22 05:37:51;;;;;;;18.77;7.57;;;12.60;99.90;;;;;;6147323;23;20017;-67
2022/10/22 05:40:16;;;;;;;14.90;7.45;;;12.50;99.90;;;;;;6147489;23;20045;-68
2022/10/22 05:42:42;;;;;;;15.80;8.52;;;12.50;99.90;;;;;;6147393;23;20037;-68
2022/10/22 05:45:08;;;;;;;19.77;12.70;;;12.50;99.90;;;;;;6147471;23;20037;-70
2022/10/22 05:47:35;;;;;;;19.55;12.25;;;12.50;99.90;;;;;;6141828;23;20075;-69
2022/10/22 05:50:00;;;;;;;24.15;12.73;;;12.50;99.90;;;;;;6119400;23;20021;-69
2022/10/22 05:52:26;;;;;;;17.80;9.68;;;12.50;99.90;;;;;;6148246;23;20020;-69
2022/10/22 05:54:51;;;;;;;14.45;8.15;;;12.50;99.90;;;;;;6146305;23;20018;-69
2022/10/22 05:57:17;;;;;;;22.60;13.15;;;12.50;99.90;;;;;;6107354;23;20029;-69
2022/10/22 05:59:43;;;;;;;22.48;11.85;;;12.50;99.90;;;;;;6142624;23;20095;-68
2022/10/22 06:02:11;;;;;;;16.00;8.48;;;12.40;99.90;;;;;;6143267;23;20136;-69
2022/10/22 06:04:37;;;;;;;16.15;7.93;;;12.50;99.90;;;;;;6121948;23;20053;-68
2022/10/22 06:07:03;;;;;;;15.30;7.30;;;12.40;99.90;;;;;;6121053;23;20021;-69
2022/10/22 06:09:34;;;;;;;15.32;7.50;;;12.50;99.90;;;;;;6146737;23;20072;-68
2022/10/22 06:11:59;;;;;;;15.45;9.80;;;12.40;99.90;;;;;;6145331;23;20022;-68
2022/10/22 06:14:26;;;;;;;17.63;10.50;;;12.40;99.90;;;;;;6115578;23;20600;-69
2022/10/22 06:16:54;;;;;;;14.95;8.30;;;12.40;99.90;;;;;;6119305;23;20094;-69
2022/10/22 06:19:21;;;;;;;21.60;8.43;;;12.50;99.90;;;;;;6146492;23;20048;-68
2022/10/22 06:21:47;;;;;;;14.25;8.55;;;12.50;99.90;;;;;;6122277;23;20022;-69
2022/10/22 06:24:13;;;;;;;12.65;8.02;;;12.50;99.90;;;;;;6119737;23;20030;-69
2022/10/22 06:26:40;;;;;;;16.42;7.40;;;12.50;99.90;;;;;;6148792;23;20473;-70
2022/10/22 06:29:07;;;;;;;13.95;7.35;;;12.50;99.90;;;;;;6146473;23;20018;-71
2022/10/22 06:31:35;;;;;;;16.33;7.35;;;12.50;99.90;;;;;;6145599;23;20018;-69
2022/10/22 06:34:03;;;;;;;11.63;6.63;;;12.50;99.90;;;;;;6121302;23;20091;-69
2022/10/22 06:36:29;;;;;;;14.90;7.28;;;12.50;99.90;;;;;;6123510;23;20044;-70
2022/10/22 06:39:01;;;;;;;15.65;8.40;;;12.50;99.90;;;;;;6146978;23;20025;-69
2022/10/22 06:41:28;;;;;;;22.10;6.93;;;12.50;99.90;;;;;;6125234;23;20040;-70
2022/10/22 06:43:56;;;;;;;18.27;7.38;;;12.50;99.90;;;;;;6149145;23;20025;-70
2022/10/22 06:46:23;;;;;;;18.30;6.97;;;12.50;99.90;;;;;;6123804;23;20049;-69
2022/10/22 06:48:50;;;;;;;15.55;7.07;;;12.50;99.90;;;;;;6150547;23;20502;-69
2022/10/22 06:51:17;;;;;;;16.58;7.57;;;12.50;99.90;;;;;;6148415;23;20324;-68
2022/10/22 06:53:42;;;;;;;17.23;6.82;;;12.50;99.90;;;;;;6098896;23;20028;-69
2022/10/22 06:56:10;;;;;;;15.63;7.63;;;12.50;99.90;;;;;;6149136;23;20013;-69
2022/10/22 06:58:37;;;;;;;14.98;7.40;;;12.50;99.90;;;;;;6149627;23;20034;-68
2022/10/22 07:01:08;;;;;;;13.07;6.93;;;12.60;99.90;;;;;;6122509;23;20024;-69
2022/10/22 07:03:34;;;;;;;12.23;7.07;;;12.60;99.90;;;;;;6148630;23;20017;-68
2022/10/22 07:06:01;;;;;;;15.82;6.65;;;12.70;99.90;;;;;;6147224;23;20101;-69
2022/10/22 07:08:28;;;;;;;15.77;7.05;;;12.70;99.90;;;;;;6148604;23;20022;-69
2022/10/22 07:10:54;;;;;;;15.23;6.60;;;12.60;99.90;;;;;;6121816;23;20021;-69
2022/10/22 07:13:20;;;;;;;16.70;7.18;;;12.70;99.90;;;;;;6145135;23;20018;-69
2022/10/22 07:15:50;;;;;;;17.98;7.43;;;12.80;99.90;;;;;;6148820;23;20331;-68
2022/10/22 07:18:16;;;;;;;13.77;6.80;;;12.80;99.90;;;;;;6147812;23;20041;-68
2022/10/22 07:20:41;;;;;;;13.57;6.47;;;12.80;99.90;;;;;;6148391;23;20015;-68
2022/10/22 07:23:07;;;;;;;23.23;6.97;;;12.80;99.90;;;;;;6149368;23;20025;-69
2022/10/22 07:25:33;;;;;;;10.75;6.18;;;12.80;99.90;;;;;;6145816;23;20021;-69
2022/10/22 07:27:58;;;;;;;22.00;7.93;;;12.80;99.90;;;;;;6149662;23;20477;-70
2022/10/22 07:30:24;;;;;;;15.90;6.78;;;12.80;99.90;;;;;;6122083;23;20022;-68
2022/10/22 07:32:49;;;;;;;17.00;6.50;;;12.80;99.90;;;;;;6146232;23;20023;-70
2022/10/22 07:35:16;;;;;;;17.10;7.60;;;12.80;99.90;;;;;;6148985;23;20049;-69
2022/10/22 07:37:41;;;;;;;14.73;6.25;;;12.90;99.90;;;;;;6147608;23;20496;-68
2022/10/22 07:40:08;;;;;;;14.90;6.25;;;12.90;99.90;;;;;;6144859;23;20029;-69
2022/10/22 07:42:33;;;;;;;14.85;6.50;;;13.00;99.90;;;;;;6149281;23;20030;-68
2022/10/22 07:44:59;;;;;;;19.67;7.18;;;13.00;99.90;;;;;;6149445;23;20044;-68
2022/10/22 07:47:25;;;;;;;19.05;6.82;;;13.00;99.90;;;;;;6120765;23;20244;-69
2022/10/22 07:49:50;;;;;;;16.73;6.05;;;13.00;99.90;;;;;;6146510;23;20029;-69
2022/10/22 07:52:16;;;;;;;16.70;6.00;;;13.20;99.90;;;;;;6149190;23;20049;-69
2022/10/22 07:54:42;;;;;;;23.77;6.60;;;13.10;99.90;;;;;;6144078;23;20017;-68
2022/10/22 07:57:07;;;;;;;13.77;6.10;;;13.20;99.90;;;;;;6121583;23;20336;-69
2022/10/22 07:59:33;;;;;;;15.95;6.90;;;13.20;99.90;;;;;;6146586;23;20086;-68
2022/10/22 08:01:59;;;;;;;15.77;6.28;;;13.30;99.90;;;;;;6123145;23;20048;-68
2022/10/22 08:04:25;;;;;;;16.80;6.82;;;13.30;99.90;;;;;;6119694;23;20342;-70
2022/10/22 08:06:50;;;;;;;15.20;4.97;;;13.50;99.90;;;;;;6149417;23;20040;-69
2022/10/22 08:09:17;;;;;;;11.90;4.75;;;13.50;99.90;;;;;;6148007;23;20351;-68
2022/10/22 08:11:45;;;;;;;17.10;5.47;;;13.60;99.90;;;;;;6148791;23;20022;-69
2022/10/22 08:14:11;;;;;;;17.42;6.88;;;13.70;99.90;;;;;;6148870;23;20516;-68
2022/10/22 08:16:37;;;;;;;10.52;5.20;;;13.80;99.90;;;;;;6147098;23;20065;-69
2022/10/22 08:19:03;;;;;;;15.25;4.38;;;13.80;99.90;;;;;;6122372;23;20018;-69
2022/10/22 08:21:29;;;;;;;17.63;5.05;;;14.00;99.90;;;;;;6148880;23;20022;-68
2022/10/22 08:23:54;;;;;;;13.98;5.03;;;14.10;99.90;;;;;;6142559;23;20413;-67
2022/10/22 08:26:20;;;;;;;17.08;4.88;;;14.20;99.90;;;;;;6146624;23;20025;-68
2022/10/22 08:28:49;;;;;;;18.15;6.45;;;14.30;99.90;;;;;;6122458;23;20037;-69
2022/10/22 08:31:14;;;;;;;17.08;4.90;;;14.40;99.90;;;;;;6120662;23;20052;-68
2022/10/22 08:33:41;;;;;;;10.93;4.68;;;14.50;99.90;;;;;;6149232;23;20026;-68
2022/10/22 08:36:07;;;;;;;16.73;5.15;;;14.60;99.90;;;;;;6147621;23;20025;-67
2022/10/22 08:38:34;;;;;;;16.55;5.40;;;14.60;99.90;;;;;;6148346;23;20025;-67
2022/10/22 08:41:10;;;;;;;15.35;5.00;;;14.60;99.90;;;;;;6148733;23;20330;-66
2022/10/22 08:43:54;;;;;;;16.02;4.00;;;14.70;99.90;;;;;;6117257;23;20045;-68
2022/10/22 08:46:36;;;;;;;10.65;3.80;;;14.70;99.90;;;;;;6143129;23;20338;-67
2022/10/22 08:49:07;;;;;;;9.93;3.92;;;14.70;99.90;;;;;;6122426;23;20092;-67
2022/10/22 08:51:39;;;;;;;12.98;3.88;;;14.80;99.90;;;;;;6147740;23;20036;-67
2022/10/22 08:54:17;;;;;;;13.60;4.18;;;14.80;99.90;;;;;;6144570;23;20339;-67
2022/10/22 08:56:49;;;;;;;12.48;4.10;;;14.90;99.90;;;;;;6149274;23;20122;-68
2022/10/22 08:59:49;;;;;;;14.17;4.53;;;14.90;99.90;;;;;;6147819;23;20458;-68
2022/10/22 09:02:33;;;;;;;15.00;4.15;;;15.00;99.90;;;;;;6147557;23;20783;-68
2022/10/22 09:05:30;;;;;;;18.88;4.10;;;15.00;99.90;;;;;;6121321;23;20033;-70
2022/10/22 09:07:56;;;;;;;13.95;3.85;;;15.00;99.90;;;;;;6147114;23;20561;-69
2022/10/22 09:10:28;;;;;;;10.50;3.90;;;15.10;99.90;;;;;;6121772;23;20026;-69
2022/10/22 09:12:54;;;;;;;13.85;4.18;;;15.10;99.90;;;;;;6148736;23;20140;-69
2022/10/22 09:15:20;;;;;;;15.60;4.03;;;15.10;99.90;;;;;;6147356;23;20049;-69
2022/10/22 09:18:10;;;;;;;15.30;4.95;;;15.10;99.90;;;;;;6119211;23;20072;-69
2022/10/22 09:21:05;;;;;;;13.40;4.10;;;15.00;99.90;;;;;;6143840;23;20203;-68
2022/10/22 09:24:01;;;;;;;16.35;4.47;;;15.00;99.90;;;;;;6142495;23;20029;-68
2022/10/22 09:26:27;;;;;;;12.05;3.72;;;14.90;99.90;;;;;;6143376;23;20028;-69
2022/10/22 09:28:53;;;;;;;13.65;4.72;;;15.00;99.90;;;;;;6134225;23;20026;-70
2022/10/22 09:31:19;;;;;;;13.00;4.97;;;15.00;99.90;;;;;;6119339;23;20017;-69
2022/10/22 09:33:47;;;;;;;12.95;4.78;;;15.10;99.90;;;;;;6149443;23;20023;-68
2022/10/22 09:36:20;;;;;;;14.18;3.88;;;15.10;99.90;;;;;;6144361;23;20132;-69
2022/10/22 09:38:51;;;;;;;15.35;4.65;;;15.20;99.90;;;;;;6118361;23;20118;-68
2022/10/22 09:41:22;;;;;;;14.35;4.47;;;15.20;99.90;;;;;;6142275;23;20108;-67
2022/10/22 09:43:51;;;;;;;13.45;4.40;;;15.20;99.90;;;;;;6105002;23;20030;-69
2022/10/22 09:46:19;;;;;;;12.48;3.83;;;15.30;99.90;;;;;;6146515;23;20353;-68
2022/10/22 09:49:01;;;;;;;12.93;3.95;;;15.30;99.90;;;;;;6145915;23;20371;-67
2022/10/22 09:51:52;;;;;;;13.52;3.95;;;15.40;99.90;;;;;;6081404;23;20061;-68
2022/10/22 09:54:33;;;;;;;12.88;5.38;;;15.40;99.90;;;;;;6140797;23;20080;-68
2022/10/22 09:57:12;;;;;;;12.98;4.97;;;15.40;99.90;;;;;;6117573;23;20025;-68
2022/10/22 09:59:54;;;;;;;14.43;4.80;;;15.50;99.90;;;;;;6145540;23;20524;-68
2022/10/22 10:02:32;;;;;;;21.60;5.95;;;15.40;99.90;;;;;;6118066;23;20025;-68
2022/10/22 10:05:02;;;;;;;11.82;4.60;;;15.50;99.90;;;;;;6148254;23;20145;-66
2022/10/22 10:07:33;;;;;;;11.70;4.82;;;15.60;99.90;;;;;;6103589;23;20017;-67
2022/10/22 10:10:17;;;;;;;16.02;4.43;;;15.50;99.90;;;;;;6122003;23;20060;-67
2022/10/22 10:13:19;;;;;;;13.02;4.47;;;15.60;99.90;;;;;;6145402;23;20382;-67
2022/10/22 10:15:59;;;;;;;12.10;4.53;;;15.50;99.90;;;;;;6138682;23;20028;-65
2022/10/22 10:19:08;;;;;;;20.00;4.88;;;15.50;99.90;;;;;;6144122;23;20030;-68
2022/10/22 10:21:59;;;;;;;11.95;4.10;;;15.50;99.90;;;;;;6063216;23;20331;-66
2022/10/22 10:24:43;;;;;;;14.68;4.20;;;15.60;99.90;;;;;;6144409;23;20450;-67
2022/10/22 10:27:36;;;;;;;11.45;4.35;;;15.70;99.90;;;;;;6132376;23;20489;-68
2022/10/22 10:30:09;;;;;;;10.57;4.72;;;15.70;99.90;;;;;;6119628;23;20029;-67
2022/10/22 10:33:12;;;;;;;13.70;4.10;;;15.80;99.90;;;;;;6149511;23;20092;-67
2022/10/22 10:35:54;;;;;;;13.27;5.10;;;15.80;99.90;;;;;;6149051;23;20056;-68
2022/10/22 10:38:38;;;;;;;12.85;4.85;;;15.90;99.90;;;;;;6147693;23;20092;-67
2022/10/22 10:41:25;;;;;;;15.02;5.45;;;15.90;99.90;;;;;;6148540;23;20025;-66
2022/10/22 10:44:00;;;;;;;12.77;6.05;;;15.80;99.90;;;;;;6145480;23;20633;-67
2022/10/22 10:46:34;;;;;;;15.07;5.55;;;15.80;99.90;;;;;;6144606;23;20826;-68
2022/10/22 10:49:14;;;;;;;17.60;7.10;;;15.70;99.90;;;;;;6146079;23;20097;-68
2022/10/22 10:52:08;;;;;;;17.00;7.60;;;15.60;99.90;;;;;;6147295;23;20022;-69
2022/10/22 10:54:53;;;;;;;15.07;9.18;;;15.60;99.90;;;;;;6143031;23;20100;-69
2022/10/22 10:57:37;;;;;;;17.15;7.53;;;15.50;99.90;;;;;;6148340;23;20029;-67
2022/10/22 11:00:16;;;;;;;14.25;8.60;;;15.40;99.90;;;;;;6150723;23;20307;-68
2022/10/22 11:03:03;;;;;;;19.45;9.18;;;15.30;99.90;;;;;;6149773;23;20022;-68
2022/10/22 11:05:38;;;;;;;14.30;8.10;;;15.40;99.90;;;;;;6146291;23;20018;-67
2022/10/22 11:08:28;;;;;;;19.08;8.45;;;15.30;99.90;;;;;;6117430;23;20040;-68
2022/10/22 11:11:06;;;;;;;17.60;9.90;;;15.30;99.90;;;;;;6147144;23;20021;-68
2022/10/22 11:13:59;;;;;;;16.63;8.20;;;15.30;99.90;;;;;;6146673;23;20506;-69
2022/10/22 11:16:27;;;;;;;22.40;7.13;;;15.40;99.90;;;;;;6146970;23;20075;-67
2022/10/22 11:19:03;;;;;;;17.00;6.90;;;15.40;99.90;;;;;;6147029;23;20249;-68
2022/10/22 11:21:41;;;;;;;20.27;7.07;;;15.40;99.90;;;;;;6146164;23;20025;-67
2022/10/22 11:24:23;;;;;;;16.35;7.03;;;15.40;99.90;;;;;;6148782;23;20489;-69
2022/10/22 11:26:59;;;;;;;15.15;6.80;;;15.40;99.90;;;;;;6148799;23;20022;-67
2022/10/22 11:29:30;;;;;;;19.08;8.38;;;15.40;99.90;;;;;;6121157;23;20111;-68
2022/10/22 11:31:58;;;;;;;18.70;7.82;;;15.30;99.90;;;;;;6143786;23;20029;-68
2022/10/22 11:34:31;;;;;;;18.38;7.47;;;15.30;99.90;;;;;;6104099;23;20092;-68
2022/10/22 11:37:12;;;;;;;14.80;7.45;;;15.30;99.90;;;;;;6144633;23;20099;-68
2022/10/22 11:40:22;;;;;;;17.45;7.53;;;15.30;99.90;;;;;;6107798;23;20017;-68
2022/10/22 11:43:03;;;;;;;17.75;7.20;;;15.30;99.90;;;;;;5950003;23;20058;-68
2022/10/22 11:45:42;;;;;;;16.13;6.72;;;15.40;99.90;;;;;;6102302;23;20065;-69
2022/10/22 11:48:26;;;;;;;25.92;8.95;;;15.40;99.90;;;;;;6145594;23;20036;-67
2022/10/22 11:50:59;;;;;;;18.67;6.35;;;15.50;99.90;;;;;;6146987;23;20192;-67
2022/10/22 11:53:24;;;;;;;16.90;6.53;;;15.60;99.90;;;;;;6146274;23;20044;-69
2022/10/22 11:56:09;;;;;;;17.05;6.78;;;15.70;99.90;;;;;;6145574;23;20453;-67
2022/10/22 11:58:43;;;;;;;14.95;5.65;;;15.80;99.90;;;;;;6146915;23;20032;-67
2022/10/22 12:01:09;;;;;;;14.52;4.50;;;15.80;99.90;;;;;;6121539;23;20144;-69
2022/10/22 12:03:42;;;;;;;12.02;4.40;;;15.90;99.90;;;;;;6146073;23;20049;-67
2022/10/22 12:06:11;;;;;;;14.68;4.10;;;16.10;99.90;;;;;;6148151;23;20092;-68
2022/10/22 12:08:49;;;;;;;10.32;3.83;;;16.10;99.90;;;;;;6120726;23;20389;-67
2022/10/22 12:11:34;;;;;;;12.00;3.83;;;16.30;99.90;;;;;;6121114;23;20048;-68
2022/10/22 12:14:32;;;;;;;12.02;5.05;;;16.30;99.90;;;;;;6147696;23;20032;-68
2022/10/22 12:17:16;;;;;;;17.73;4.53;;;16.40;99.90;;;;;;6148691;23;20461;-68
2022/10/22 12:19:57;;;;;;;14.98;4.20;;;16.50;99.90;;;;;;6148239;23;20013;-68
2022/10/22 12:22:28;;;;;;;14.63;3.50;;;16.50;99.90;;;;;;6117244;23;20037;-68
2022/10/22 12:24:58;;;;;;;15.88;3.95;;;16.50;99.90;;;;;;6122929;23;20029;-68
2022/10/22 12:27:35;;;;;;;16.30;4.97;;;16.60;99.90;;;;;;6122053;23;20446;-68
2022/10/22 12:30:28;;;;;;;16.13;3.85;;;16.50;99.90;;;;;;6118629;23;20021;-70
2022/10/22 12:32:56;;;;;;;13.30;3.28;;;16.50;99.90;;;;;;6144877;23;20048;-68
2022/10/22 12:35:27;;;;;;;11.52;2.67;;;16.50;99.90;;;;;;6133356;23;20269;-69
2022/10/22 12:38:03;;;;;;;15.45;3.15;;;16.50;99.90;;;;;;6146311;23;20102;-68
2022/10/22 12:40:33;;;;;;;17.75;2.50;;;16.60;99.90;;;;;;6143232;23;20171;-68
2022/10/22 12:43:32;;;;;;;12.82;2.38;;;16.60;99.90;;;;;;6147366;23;20469;-68
2022/10/22 12:45:58;;;;;;;11.48;2.63;;;16.60;99.90;;;;;;6074832;23;20025;-67
2022/10/22 12:48:30;;;;;;;13.52;2.15;;;16.70;99.90;;;;;;6108492;23;20220;-68
2022/10/22 12:51:02;;;;;;;10.10;2.13;;;16.70;99.90;;;;;;6148304;23;20543;-67
2022/10/22 12:53:31;;;;;;;15.07;2.50;;;16.80;99.90;;;;;;6147529;23;20018;-68
2022/10/22 12:56:02;;;;;;;17.60;4.97;;;16.80;99.90;;;;;;6122253;23;20029;-67
2022/10/22 12:58:41;;;;;;;40.53;13.85;;;16.90;99.90;;;;;;6120068;23;20021;-67